04VG weather

Manquin Flight Park Ultralightport
Manquin, Virginia, United States

Public forecast

Using degrees Fahrenheit for public forecast. Weather courtesy of forecast.io.

Closest aviation weather report (METAR) to Manquin Flight Park Ultralightport

Closest report is Hanover County Municipal Airport, 10.7 nm (19.8 km) W. Retrieved 2019/10/18 06:54 UTC (1 hour ago):

KOFP 180654Z AUTO 00000KT 10SM CLR 04/02 A2990 RMK AO2 SLP126 T00390022

Closest aviation forecast (TAF) to Manquin Flight Park Ultralightport

Closest forecast is Richmond International Airport, 13.6 nm (25.1 km) SSW. Retrieved 2019/10/18 06:27 UTC (1 hour ago):

TAF KRIC 180525Z 1806/1906 29008KT P6SM SKC FM181400 32006KT P6SM SKC FM182300 VRB03KT P6SM SKC